sensor_id;sensor_type;location;lat;lon;timestamp;P1;durP1;ratioP1;P2;durP2;ratioP2
6537;SDS011;3302;52.508;13.454;2022-09-06T00:00:05;3.17;;;1.60;;
6537;SDS011;3302;52.508;13.454;2022-09-06T00:02:37;4.17;;;1.80;;
6537;SDS011;3302;52.508;13.454;2022-09-06T00:05:03;4.10;;;1.60;;
6537;SDS011;3302;52.508;13.454;2022-09-06T00:07:30;2.67;;;1.30;;
6537;SDS011;3302;52.508;13.454;2022-09-06T00:09:56;2.60;;;1.70;;
6537;SDS011;3302;52.508;13.454;2022-09-06T00:12:22;2.20;;;1.40;;
6537;SDS011;3302;52.508;13.454;2022-09-06T00:14:48;5.33;;;1.67;;
6537;SDS011;3302;52.508;13.454;2022-09-06T00:17:15;1.90;;;1.63;;
6537;SDS011;3302;52.508;13.454;2022-09-06T00:19:40;2.30;;;1.53;;
6537;SDS011;3302;52.508;13.454;2022-09-06T00:22:07;2.83;;;1.50;;
6537;SDS011;3302;52.508;13.454;2022-09-06T00:24:32;2.87;;;1.40;;
6537;SDS011;3302;52.508;13.454;2022-09-06T00:26:58;2.67;;;1.53;;
6537;SDS011;3302;52.508;13.454;2022-09-06T00:29:24;2.97;;;1.40;;
6537;SDS011;3302;52.508;13.454;2022-09-06T00:31:50;2.23;;;1.47;;
6537;SDS011;3302;52.508;13.454;2022-09-06T00:34:15;2.03;;;1.60;;
6537;SDS011;3302;52.508;13.454;2022-09-06T00:36:41;3.67;;;1.40;;
6537;SDS011;3302;52.508;13.454;2022-09-06T00:39:07;4.07;;;1.80;;
6537;SDS011;3302;52.508;13.454;2022-09-06T00:41:33;2.43;;;1.27;;
6537;SDS011;3302;52.508;13.454;2022-09-06T00:43:58;2.50;;;1.70;;
6537;SDS011;3302;52.508;13.454;2022-09-06T00:46:27;2.80;;;1.53;;
6537;SDS011;3302;52.508;13.454;2022-09-06T00:48:55;2.43;;;1.63;;
6537;SDS011;3302;52.508;13.454;2022-09-06T00:51:30;1.47;;;1.30;;
6537;SDS011;3302;52.508;13.454;2022-09-06T00:53:58;1.93;;;1.30;;
6537;SDS011;3302;52.508;13.454;2022-09-06T00:56:32;2.47;;;1.30;;
6537;SDS011;3302;52.508;13.454;2022-09-06T00:58:59;1.40;;;1.10;;
6537;SDS011;3302;52.508;13.454;2022-09-06T01:01:26;1.80;;;1.53;;
6537;SDS011;3302;52.508;13.454;2022-09-06T01:03:52;5.00;;;1.50;;
6537;SDS011;3302;52.508;13.454;2022-09-06T01:06:25;2.00;;;1.30;;
6537;SDS011;3302;52.508;13.454;2022-09-06T01:09:08;1.73;;;1.20;;
6537;SDS011;3302;52.508;13.454;2022-09-06T01:11:57;2.57;;;1.20;;
6537;SDS011;3302;52.508;13.454;2022-09-06T01:17:26;4.00;;;1.60;;
6537;SDS011;3302;52.508;13.454;2022-09-06T01:30:15;4.10;;;1.60;;
6537;SDS011;3302;52.508;13.454;2022-09-06T01:32:50;7.17;;;1.77;;
6537;SDS011;3302;52.508;13.454;2022-09-06T01:35:32;2.93;;;1.20;;
6537;SDS011;3302;52.508;13.454;2022-09-06T01:38:05;5.93;;;1.80;;
6537;SDS011;3302;52.508;13.454;2022-09-06T01:40:32;3.40;;;1.50;;
6537;SDS011;3302;52.508;13.454;2022-09-06T01:43:01;3.57;;;1.50;;
6537;SDS011;3302;52.508;13.454;2022-09-06T01:45:33;1.70;;;1.30;;
6537;SDS011;3302;52.508;13.454;2022-09-06T01:48:16;2.37;;;1.27;;
6537;SDS011;3302;52.508;13.454;2022-09-06T01:51:06;2.37;;;1.10;;
6537;SDS011;3302;52.508;13.454;2022-09-06T01:53:53;2.07;;;1.20;;
6537;SDS011;3302;52.508;13.454;2022-09-06T01:59:37;1.50;;;1.30;;
6537;SDS011;3302;52.508;13.454;2022-09-06T02:02:34;3.87;;;1.53;;
6537;SDS011;3302;52.508;13.454;2022-09-06T02:08:19;2.33;;;1.37;;
6537;SDS011;3302;52.508;13.454;2022-09-06T02:11:08;3.03;;;1.40;;
6537;SDS011;3302;52.508;13.454;2022-09-06T02:13:38;2.47;;;1.50;;
6537;SDS011;3302;52.508;13.454;2022-09-06T02:16:27;2.20;;;1.30;;
6537;SDS011;3302;52.508;13.454;2022-09-06T02:21:55;2.93;;;1.30;;
6537;SDS011;3302;52.508;13.454;2022-09-06T02:24:24;2.33;;;1.20;;
6537;SDS011;3302;52.508;13.454;2022-09-06T02:26:54;2.90;;;1.37;;
6537;SDS011;3302;52.508;13.454;2022-09-06T02:29:21;2.33;;;1.50;;
6537;SDS011;3302;52.508;13.454;2022-09-06T02:31:49;2.80;;;1.20;;
6537;SDS011;3302;52.508;13.454;2022-09-06T02:34:22;2.10;;;1.37;;
6537;SDS011;3302;52.508;13.454;2022-09-06T02:36:49;2.20;;;1.40;;
6537;SDS011;3302;52.508;13.454;2022-09-06T02:39:15;2.13;;;1.37;;
6537;SDS011;3302;52.508;13.454;2022-09-06T02:41:41;3.10;;;1.27;;
6537;SDS011;3302;52.508;13.454;2022-09-06T02:44:09;3.00;;;1.40;;
6537;SDS011;3302;52.508;13.454;2022-09-06T02:46:34;2.27;;;1.40;;
6537;SDS011;3302;52.508;13.454;2022-09-06T02:49:00;2.20;;;1.30;;
6537;SDS011;3302;52.508;13.454;2022-09-06T02:51:26;3.20;;;1.60;;
6537;SDS011;3302;52.508;13.454;2022-09-06T02:53:52;2.17;;;1.40;;
6537;SDS011;3302;52.508;13.454;2022-09-06T02:56:17;3.00;;;1.60;;
6537;SDS011;3302;52.508;13.454;2022-09-06T02:58:43;2.27;;;1.40;;
6537;SDS011;3302;52.508;13.454;2022-09-06T03:01:09;1.80;;;1.20;;
6537;SDS011;3302;52.508;13.454;2022-09-06T03:03:35;3.03;;;1.83;;
6537;SDS011;3302;52.508;13.454;2022-09-06T03:06:00;2.00;;;1.43;;
6537;SDS011;3302;52.508;13.454;2022-09-06T03:08:26;4.53;;;1.63;;
6537;SDS011;3302;52.508;13.454;2022-09-06T03:10:58;1.90;;;1.30;;
6537;SDS011;3302;52.508;13.454;2022-09-06T03:13:24;3.67;;;1.47;;
6537;SDS011;3302;52.508;13.454;2022-09-06T03:15:51;3.00;;;1.50;;
6537;SDS011;3302;52.508;13.454;2022-09-06T03:18:18;1.93;;;1.40;;
6537;SDS011;3302;52.508;13.454;2022-09-06T03:20:44;2.83;;;1.40;;
6537;SDS011;3302;52.508;13.454;2022-09-06T03:23:10;2.40;;;1.33;;
6537;SDS011;3302;52.508;13.454;2022-09-06T03:25:35;2.20;;;1.30;;
6537;SDS011;3302;52.508;13.454;2022-09-06T03:28:02;4.00;;;1.50;;
6537;SDS011;3302;52.508;13.454;2022-09-06T03:30:28;1.73;;;1.40;;
6537;SDS011;3302;52.508;13.454;2022-09-06T03:32:53;2.47;;;1.20;;
6537;SDS011;3302;52.508;13.454;2022-09-06T03:35:19;4.43;;;1.50;;
6537;SDS011;3302;52.508;13.454;2022-09-06T03:37:45;5.93;;;1.60;;
6537;SDS011;3302;52.508;13.454;2022-09-06T03:40:11;2.83;;;1.40;;
6537;SDS011;3302;52.508;13.454;2022-09-06T03:42:36;2.87;;;1.47;;
6537;SDS011;3302;52.508;13.454;2022-09-06T03:45:02;3.67;;;1.40;;
6537;SDS011;3302;52.508;13.454;2022-09-06T03:47:29;2.43;;;1.30;;
6537;SDS011;3302;52.508;13.454;2022-09-06T03:49:55;4.10;;;1.43;;
6537;SDS011;3302;52.508;13.454;2022-09-06T03:52:21;2.40;;;1.37;;
6537;SDS011;3302;52.508;13.454;2022-09-06T03:54:47;2.83;;;1.43;;
6537;SDS011;3302;52.508;13.454;2022-09-06T03:57:12;2.37;;;1.50;;
6537;SDS011;3302;52.508;13.454;2022-09-06T03:59:38;2.67;;;1.30;;
6537;SDS011;3302;52.508;13.454;2022-09-06T04:02:04;2.57;;;1.53;;
6537;SDS011;3302;52.508;13.454;2022-09-06T04:04:30;1.80;;;1.40;;
6537;SDS011;3302;52.508;13.454;2022-09-06T04:06:56;2.10;;;1.20;;
6537;SDS011;3302;52.508;13.454;2022-09-06T04:09:22;2.70;;;1.50;;
6537;SDS011;3302;52.508;13.454;2022-09-06T04:11:48;2.17;;;1.60;;
6537;SDS011;3302;52.508;13.454;2022-09-06T04:14:13;2.63;;;1.80;;
6537;SDS011;3302;52.508;13.454;2022-09-06T04:16:39;2.83;;;2.00;;
6537;SDS011;3302;52.508;13.454;2022-09-06T04:19:05;1.83;;;1.30;;
6537;SDS011;3302;52.508;13.454;2022-09-06T04:21:31;2.33;;;1.60;;
6537;SDS011;3302;52.508;13.454;2022-09-06T04:23:57;1.90;;;1.40;;
6537;SDS011;3302;52.508;13.454;2022-09-06T04:26:22;2.23;;;1.43;;
6537;SDS011;3302;52.508;13.454;2022-09-06T04:28:48;3.63;;;1.57;;
6537;SDS011;3302;52.508;13.454;2022-09-06T04:31:14;2.03;;;1.40;;
6537;SDS011;3302;52.508;13.454;2022-09-06T04:33:40;1.90;;;1.37;;
6537;SDS011;3302;52.508;13.454;2022-09-06T04:36:07;2.57;;;1.63;;
6537;SDS011;3302;52.508;13.454;2022-09-06T04:38:35;3.80;;;1.70;;
6537;SDS011;3302;52.508;13.454;2022-09-06T04:41:03;1.83;;;1.50;;
6537;SDS011;3302;52.508;13.454;2022-09-06T04:43:29;1.80;;;1.40;;
6537;SDS011;3302;52.508;13.454;2022-09-06T04:45:55;3.47;;;1.83;;
6537;SDS011;3302;52.508;13.454;2022-09-06T04:48:20;2.27;;;1.40;;
6537;SDS011;3302;52.508;13.454;2022-09-06T04:50:46;2.73;;;1.43;;
6537;SDS011;3302;52.508;13.454;2022-09-06T04:53:12;7.10;;;1.70;;
6537;SDS011;3302;52.508;13.454;2022-09-06T04:55:38;2.30;;;1.40;;
6537;SDS011;3302;52.508;13.454;2022-09-06T04:58:04;1.90;;;1.40;;
6537;SDS011;3302;52.508;13.454;2022-09-06T05:00:30;2.03;;;1.83;;
6537;SDS011;3302;52.508;13.454;2022-09-06T05:02:57;2.47;;;1.50;;
6537;SDS011;3302;52.508;13.454;2022-09-06T05:05:23;3.20;;;1.53;;
6537;SDS011;3302;52.508;13.454;2022-09-06T05:07:52;2.20;;;1.43;;
6537;SDS011;3302;52.508;13.454;2022-09-06T05:10:18;4.07;;;1.50;;
6537;SDS011;3302;52.508;13.454;2022-09-06T05:12:51;2.63;;;1.40;;
6537;SDS011;3302;52.508;13.454;2022-09-06T05:15:18;1.60;;;1.50;;
6537;SDS011;3302;52.508;13.454;2022-09-06T05:17:45;3.57;;;1.50;;
6537;SDS011;3302;52.508;13.454;2022-09-06T05:20:11;2.07;;;1.50;;
6537;SDS011;3302;52.508;13.454;2022-09-06T05:22:37;4.40;;;1.60;;
6537;SDS011;3302;52.508;13.454;2022-09-06T05:25:04;5.70;;;1.90;;
6537;SDS011;3302;52.508;13.454;2022-09-06T05:27:31;1.63;;;1.20;;
6537;SDS011;3302;52.508;13.454;2022-09-06T05:29:56;3.50;;;1.80;;
6537;SDS011;3302;52.508;13.454;2022-09-06T05:32:22;1.80;;;1.30;;
6537;SDS011;3302;52.508;13.454;2022-09-06T05:34:48;3.83;;;1.83;;
6537;SDS011;3302;52.508;13.454;2022-09-06T05:37:14;2.30;;;1.40;;
6537;SDS011;3302;52.508;13.454;2022-09-06T05:39:39;1.70;;;1.40;;
6537;SDS011;3302;52.508;13.454;2022-09-06T05:42:05;4.70;;;1.97;;
6537;SDS011;3302;52.508;13.454;2022-09-06T05:44:32;2.20;;;1.80;;
6537;SDS011;3302;52.508;13.454;2022-09-06T05:46:58;2.83;;;1.40;;
6537;SDS011;3302;52.508;13.454;2022-09-06T05:49:25;2.57;;;1.37;;
6537;SDS011;3302;52.508;13.454;2022-09-06T05:51:53;3.73;;;1.50;;
6537;SDS011;3302;52.508;13.454;2022-09-06T05:54:19;4.03;;;1.30;;
6537;SDS011;3302;52.508;13.454;2022-09-06T05:56:45;2.83;;;1.53;;
6537;SDS011;3302;52.508;13.454;2022-09-06T05:59:10;2.97;;;1.40;;
6537;SDS011;3302;52.508;13.454;2022-09-06T06:01:45;2.70;;;1.30;;
6537;SDS011;3302;52.508;13.454;2022-09-06T06:04:12;4.90;;;1.90;;
6537;SDS011;3302;52.508;13.454;2022-09-06T06:06:38;5.27;;;1.80;;
6537;SDS011;3302;52.508;13.454;2022-09-06T06:09:03;2.10;;;1.53;;
6537;SDS011;3302;52.508;13.454;2022-09-06T06:11:30;2.67;;;1.60;;
6537;SDS011;3302;52.508;13.454;2022-09-06T06:13:56;2.47;;;1.20;;
6537;SDS011;3302;52.508;13.454;2022-09-06T06:16:23;1.80;;;1.57;;
6537;SDS011;3302;52.508;13.454;2022-09-06T06:18:49;3.23;;;1.40;;
6537;SDS011;3302;52.508;13.454;2022-09-06T06:21:16;4.03;;;1.50;;
6537;SDS011;3302;52.508;13.454;2022-09-06T06:23:48;3.50;;;1.73;;
6537;SDS011;3302;52.508;13.454;2022-09-06T06:26:18;2.07;;;1.40;;
6537;SDS011;3302;52.508;13.454;2022-09-06T06:28:44;4.77;;;1.70;;
6537;SDS011;3302;52.508;13.454;2022-09-06T06:31:10;4.47;;;1.57;;
6537;SDS011;3302;52.508;13.454;2022-09-06T06:33:37;3.67;;;1.90;;
6537;SDS011;3302;52.508;13.454;2022-09-06T06:36:04;2.80;;;1.50;;
6537;SDS011;3302;52.508;13.454;2022-09-06T06:38:37;3.07;;;1.60;;
6537;SDS011;3302;52.508;13.454;2022-09-06T06:41:05;3.37;;;1.77;;
6537;SDS011;3302;52.508;13.454;2022-09-06T06:43:32;3.50;;;1.50;;
6537;SDS011;3302;52.508;13.454;2022-09-06T06:46:11;3.80;;;1.40;;
6537;SDS011;3302;52.508;13.454;2022-09-06T06:48:39;4.20;;;1.77;;
6537;SDS011;3302;52.508;13.454;2022-09-06T06:51:09;3.73;;;1.50;;
6537;SDS011;3302;52.508;13.454;2022-09-06T06:53:37;3.13;;;1.60;;
6537;SDS011;3302;52.508;13.454;2022-09-06T06:58:39;3.33;;;1.80;;
6537;SDS011;3302;52.508;13.454;2022-09-06T07:01:05;3.90;;;1.80;;
6537;SDS011;3302;52.508;13.454;2022-09-06T07:03:32;2.73;;;1.60;;
6537;SDS011;3302;52.508;13.454;2022-09-06T07:05:57;4.60;;;1.50;;
6537;SDS011;3302;52.508;13.454;2022-09-06T07:08:23;3.70;;;1.80;;
6537;SDS011;3302;52.508;13.454;2022-09-06T07:10:49;4.63;;;1.63;;
6537;SDS011;3302;52.508;13.454;2022-09-06T07:13:15;3.67;;;1.80;;
6537;SDS011;3302;52.508;13.454;2022-09-06T07:15:40;7.80;;;2.70;;
6537;SDS011;3302;52.508;13.454;2022-09-06T07:18:06;4.53;;;2.60;;
6537;SDS011;3302;52.508;13.454;2022-09-06T07:20:32;6.03;;;2.33;;
6537;SDS011;3302;52.508;13.454;2022-09-06T07:22:58;4.23;;;1.90;;
6537;SDS011;3302;52.508;13.454;2022-09-06T07:25:29;4.47;;;2.20;;
6537;SDS011;3302;52.508;13.454;2022-09-06T07:27:56;4.47;;;2.10;;
6537;SDS011;3302;52.508;13.454;2022-09-06T07:30:23;3.43;;;1.83;;
6537;SDS011;3302;52.508;13.454;2022-09-06T07:32:49;2.27;;;1.83;;
6537;SDS011;3302;52.508;13.454;2022-09-06T07:35:14;6.10;;;2.07;;
6537;SDS011;3302;52.508;13.454;2022-09-06T07:37:40;3.73;;;1.93;;
6537;SDS011;3302;52.508;13.454;2022-09-06T07:40:06;3.80;;;2.33;;
6537;SDS011;3302;52.508;13.454;2022-09-06T07:42:32;3.30;;;2.33;;
6537;SDS011;3302;52.508;13.454;2022-09-06T07:44:58;5.53;;;2.30;;
6537;SDS011;3302;52.508;13.454;2022-09-06T07:47:24;3.20;;;2.77;;
6537;SDS011;3302;52.508;13.454;2022-09-06T07:49:50;3.40;;;2.20;;
6537;SDS011;3302;52.508;13.454;2022-09-06T07:52:15;7.83;;;2.70;;
6537;SDS011;3302;52.508;13.454;2022-09-06T07:54:41;5.00;;;2.33;;
6537;SDS011;3302;52.508;13.454;2022-09-06T07:57:07;3.47;;;2.50;;
6537;SDS011;3302;52.508;13.454;2022-09-06T07:59:32;4.37;;;2.30;;
6537;SDS011;3302;52.508;13.454;2022-09-06T08:01:58;4.53;;;2.30;;
6537;SDS011;3302;52.508;13.454;2022-09-06T08:04:24;4.73;;;2.13;;
6537;SDS011;3302;52.508;13.454;2022-09-06T08:06:50;9.23;;;3.97;;
6537;SDS011;3302;52.508;13.454;2022-09-06T08:09:16;4.70;;;3.03;;
6537;SDS011;3302;52.508;13.454;2022-09-06T08:11:42;10.63;;;3.53;;
6537;SDS011;3302;52.508;13.454;2022-09-06T08:14:07;4.67;;;2.30;;
6537;SDS011;3302;52.508;13.454;2022-09-06T08:16:34;4.67;;;2.33;;
6537;SDS011;3302;52.508;13.454;2022-09-06T08:19:03;3.63;;;2.10;;
6537;SDS011;3302;52.508;13.454;2022-09-06T08:21:32;4.60;;;2.20;;
6537;SDS011;3302;52.508;13.454;2022-09-06T08:24:00;5.27;;;2.30;;
6537;SDS011;3302;52.508;13.454;2022-09-06T08:26:27;7.20;;;2.73;;
6537;SDS011;3302;52.508;13.454;2022-09-06T08:28:54;5.87;;;3.00;;
6537;SDS011;3302;52.508;13.454;2022-09-06T08:31:23;2.90;;;2.03;;
6537;SDS011;3302;52.508;13.454;2022-09-06T08:33:48;4.77;;;2.30;;
6537;SDS011;3302;52.508;13.454;2022-09-06T08:36:15;4.07;;;2.30;;
6537;SDS011;3302;52.508;13.454;2022-09-06T08:38:41;8.57;;;3.83;;
6537;SDS011;3302;52.508;13.454;2022-09-06T08:43:45;5.43;;;2.53;;
6537;SDS011;3302;52.508;13.454;2022-09-06T08:46:20;4.97;;;2.40;;
6537;SDS011;3302;52.508;13.454;2022-09-06T08:49:08;5.77;;;2.97;;
6537;SDS011;3302;52.508;13.454;2022-09-06T08:54:35;4.73;;;2.60;;
6537;SDS011;3302;52.508;13.454;2022-09-06T08:59:35;4.10;;;2.37;;
6537;SDS011;3302;52.508;13.454;2022-09-06T09:04:42;4.47;;;2.50;;
6537;SDS011;3302;52.508;13.454;2022-09-06T09:07:28;3.87;;;2.30;;
6537;SDS011;3302;52.508;13.454;2022-09-06T09:09:57;3.13;;;2.60;;
6537;SDS011;3302;52.508;13.454;2022-09-06T09:12:26;3.53;;;2.20;;
6537;SDS011;3302;52.508;13.454;2022-09-06T09:14:59;3.67;;;2.20;;
6537;SDS011;3302;52.508;13.454;2022-09-06T09:17:29;4.43;;;2.33;;
6537;SDS011;3302;52.508;13.454;2022-09-06T09:19:56;4.97;;;2.23;;
6537;SDS011;3302;52.508;13.454;2022-09-06T09:22:22;4.97;;;2.53;;
6537;SDS011;3302;52.508;13.454;2022-09-06T09:24:49;4.63;;;2.63;;
6537;SDS011;3302;52.508;13.454;2022-09-06T09:27:17;3.53;;;2.27;;
6537;SDS011;3302;52.508;13.454;2022-09-06T09:32:30;7.80;;;2.70;;
6537;SDS011;3302;52.508;13.454;2022-09-06T09:35:14;6.37;;;2.53;;
6537;SDS011;3302;52.508;13.454;2022-09-06T09:37:45;4.37;;;2.40;;
6537;SDS011;3302;52.508;13.454;2022-09-06T09:40:55;3.57;;;2.40;;
6537;SDS011;3302;52.508;13.454;2022-09-06T09:43:14;5.63;;;2.60;;
6537;SDS011;3302;52.508;13.454;2022-09-06T09:45:42;5.07;;;2.30;;
6537;SDS011;3302;52.508;13.454;2022-09-06T09:48:18;4.40;;;2.50;;
6537;SDS011;3302;52.508;13.454;2022-09-06T09:50:51;5.33;;;2.90;;
6537;SDS011;3302;52.508;13.454;2022-09-06T09:53:18;6.53;;;3.10;;
6537;SDS011;3302;52.508;13.454;2022-09-06T09:55:46;3.30;;;2.40;;
6537;SDS011;3302;52.508;13.454;2022-09-06T09:58:23;3.83;;;2.67;;
6537;SDS011;3302;52.508;13.454;2022-09-06T10:01:15;5.27;;;2.70;;
6537;SDS011;3302;52.508;13.454;2022-09-06T10:04:02;6.67;;;3.57;;
6537;SDS011;3302;52.508;13.454;2022-09-06T10:06:33;6.63;;;2.93;;
6537;SDS011;3302;52.508;13.454;2022-09-06T10:09:11;8.40;;;3.63;;
6537;SDS011;3302;52.508;13.454;2022-09-06T10:11:47;4.10;;;2.80;;
6537;SDS011;3302;52.508;13.454;2022-09-06T10:14:24;4.53;;;3.33;;
6537;SDS011;3302;52.508;13.454;2022-09-06T10:16:53;3.93;;;3.13;;
6537;SDS011;3302;52.508;13.454;2022-09-06T10:19:20;7.20;;;3.10;;
6537;SDS011;3302;52.508;13.454;2022-09-06T10:27:54;3.30;;;2.80;;
6537;SDS011;3302;52.508;13.454;2022-09-06T10:30:59;4.00;;;2.70;;
6537;SDS011;3302;52.508;13.454;2022-09-06T10:36:52;5.37;;;3.30;;
6537;SDS011;3302;52.508;13.454;2022-09-06T10:39:42;4.20;;;2.70;;
6537;SDS011;3302;52.508;13.454;2022-09-06T10:42:36;5.07;;;2.60;;
6537;SDS011;3302;52.508;13.454;2022-09-06T10:48:00;5.97;;;3.63;;
6537;SDS011;3302;52.508;13.454;2022-09-06T10:50:44;7.83;;;3.27;;
6537;SDS011;3302;52.508;13.454;2022-09-06T10:53:16;6.57;;;3.63;;
6537;SDS011;3302;52.508;13.454;2022-09-06T10:56:01;5.67;;;3.40;;
6537;SDS011;3302;52.508;13.454;2022-09-06T10:58:32;5.30;;;2.67;;
6537;SDS011;3302;52.508;13.454;2022-09-06T11:01:03;4.33;;;3.30;;
6537;SDS011;3302;52.508;13.454;2022-09-06T11:03:33;3.93;;;3.03;;
6537;SDS011;3302;52.508;13.454;2022-09-06T11:06:07;6.60;;;3.03;;
6537;SDS011;3302;52.508;13.454;2022-09-06T11:08:41;4.40;;;3.20;;
6537;SDS011;3302;52.508;13.454;2022-09-06T11:11:29;5.80;;;2.80;;
6537;SDS011;3302;52.508;13.454;2022-09-06T11:14:10;6.13;;;3.60;;
6537;SDS011;3302;52.508;13.454;2022-09-06T11:16:42;7.27;;;3.77;;
6537;SDS011;3302;52.508;13.454;2022-09-06T11:19:15;4.40;;;3.20;;
6537;SDS011;3302;52.508;13.454;2022-09-06T11:22:09;8.20;;;6.13;;
6537;SDS011;3302;52.508;13.454;2022-09-06T11:27:41;4.23;;;2.60;;
6537;SDS011;3302;52.508;13.454;2022-09-06T11:30:12;4.73;;;2.90;;
6537;SDS011;3302;52.508;13.454;2022-09-06T11:32:41;5.73;;;4.13;;
6537;SDS011;3302;52.508;13.454;2022-09-06T11:37:47;7.00;;;3.00;;
6537;SDS011;3302;52.508;13.454;2022-09-06T11:40:25;3.60;;;2.60;;
6537;SDS011;3302;52.508;13.454;2022-09-06T11:45:20;4.60;;;2.90;;
6537;SDS011;3302;52.508;13.454;2022-09-06T11:53:23;3.93;;;3.07;;
6537;SDS011;3302;52.508;13.454;2022-09-06T11:58:43;3.40;;;2.97;;
6537;SDS011;3302;52.508;13.454;2022-09-06T12:06:26;6.10;;;3.17;;
6537;SDS011;3302;52.508;13.454;2022-09-06T12:08:59;4.10;;;3.20;;
6537;SDS011;3302;52.508;13.454;2022-09-06T12:11:37;7.10;;;3.30;;
6537;SDS011;3302;52.508;13.454;2022-09-06T12:19:39;4.30;;;3.23;;
6537;SDS011;3302;52.508;13.454;2022-09-06T12:27:20;4.73;;;3.10;;
6537;SDS011;3302;52.508;13.454;2022-09-06T12:29:53;6.17;;;4.10;;
6537;SDS011;3302;52.508;13.454;2022-09-06T12:32:24;6.30;;;4.50;;
6537;SDS011;3302;52.508;13.454;2022-09-06T12:35:15;4.83;;;3.37;;
6537;SDS011;3302;52.508;13.454;2022-09-06T12:37:57;5.03;;;3.60;;
6537;SDS011;3302;52.508;13.454;2022-09-06T12:40:26;6.97;;;3.50;;
6537;SDS011;3302;52.508;13.454;2022-09-06T12:42:55;4.03;;;3.43;;
6537;SDS011;3302;52.508;13.454;2022-09-06T12:45:21;6.53;;;3.83;;
6537;SDS011;3302;52.508;13.454;2022-09-06T12:47:47;4.50;;;3.87;;
6537;SDS011;3302;52.508;13.454;2022-09-06T12:50:18;5.90;;;3.50;;
6537;SDS011;3302;52.508;13.454;2022-09-06T12:52:55;6.57;;;3.40;;
6537;SDS011;3302;52.508;13.454;2022-09-06T12:55:30;6.70;;;3.43;;
6537;SDS011;3302;52.508;13.454;2022-09-06T12:58:05;3.90;;;3.47;;
6537;SDS011;3302;52.508;13.454;2022-09-06T13:00:40;6.10;;;3.47;;
6537;SDS011;3302;52.508;13.454;2022-09-06T13:05:49;4.13;;;3.40;;
6537;SDS011;3302;52.508;13.454;2022-09-06T13:08:18;5.53;;;3.13;;
6537;SDS011;3302;52.508;13.454;2022-09-06T13:10:48;6.80;;;3.40;;
6537;SDS011;3302;52.508;13.454;2022-09-06T13:13:18;4.83;;;2.90;;
6537;SDS011;3302;52.508;13.454;2022-09-06T13:15:47;6.70;;;3.33;;
6537;SDS011;3302;52.508;13.454;2022-09-06T13:18:20;5.03;;;3.13;;
6537;SDS011;3302;52.508;13.454;2022-09-06T13:20:57;3.70;;;3.40;;
6537;SDS011;3302;52.508;13.454;2022-09-06T13:23:25;5.87;;;3.70;;
6537;SDS011;3302;52.508;13.454;2022-09-06T13:25:51;6.00;;;3.57;;
6537;SDS011;3302;52.508;13.454;2022-09-06T13:33:55;3.53;;;3.17;;
6537;SDS011;3302;52.508;13.454;2022-09-06T13:36:24;5.83;;;3.73;;
6537;SDS011;3302;52.508;13.454;2022-09-06T13:38:52;5.77;;;3.60;;
6537;SDS011;3302;52.508;13.454;2022-09-06T13:46:52;5.77;;;3.20;;
6537;SDS011;3302;52.508;13.454;2022-09-06T13:49:19;3.50;;;3.20;;
6537;SDS011;3302;52.508;13.454;2022-09-06T13:51:47;3.63;;;3.27;;
6537;SDS011;3302;52.508;13.454;2022-09-06T13:54:14;5.80;;;3.57;;
6537;SDS011;3302;52.508;13.454;2022-09-06T13:56:40;4.20;;;3.33;;
6537;SDS011;3302;52.508;13.454;2022-09-06T13:59:09;5.43;;;3.80;;
6537;SDS011;3302;52.508;13.454;2022-09-06T14:01:36;4.37;;;3.53;;
6537;SDS011;3302;52.508;13.454;2022-09-06T14:04:03;4.10;;;3.43;;
6537;SDS011;3302;52.508;13.454;2022-09-06T14:06:29;5.07;;;3.60;;
6537;SDS011;3302;52.508;13.454;2022-09-06T14:08:55;5.10;;;3.33;;
6537;SDS011;3302;52.508;13.454;2022-09-06T14:11:21;4.73;;;3.67;;
6537;SDS011;3302;52.508;13.454;2022-09-06T14:13:48;5.93;;;3.70;;
6537;SDS011;3302;52.508;13.454;2022-09-06T14:16:14;4.60;;;3.70;;
6537;SDS011;3302;52.508;13.454;2022-09-06T14:18:40;15.20;;;5.90;;
6537;SDS011;3302;52.508;13.454;2022-09-06T14:21:06;5.30;;;4.13;;
6537;SDS011;3302;52.508;13.454;2022-09-06T14:23:32;9.20;;;3.80;;
6537;SDS011;3302;52.508;13.454;2022-09-06T14:25:59;4.83;;;3.40;;
6537;SDS011;3302;52.508;13.454;2022-09-06T14:28:26;6.03;;;3.73;;
6537;SDS011;3302;52.508;13.454;2022-09-06T14:30:55;5.37;;;3.43;;
6537;SDS011;3302;52.508;13.454;2022-09-06T14:33:20;8.20;;;3.53;;
6537;SDS011;3302;52.508;13.454;2022-09-06T14:35:46;7.30;;;3.50;;
6537;SDS011;3302;52.508;13.454;2022-09-06T14:38:13;4.93;;;2.97;;
6537;SDS011;3302;52.508;13.454;2022-09-06T14:40:39;3.40;;;3.10;;
6537;SDS011;3302;52.508;13.454;2022-09-06T14:43:08;6.03;;;3.03;;
6537;SDS011;3302;52.508;13.454;2022-09-06T14:45:35;6.37;;;3.30;;
6537;SDS011;3302;52.508;13.454;2022-09-06T14:48:01;4.03;;;3.03;;
6537;SDS011;3302;52.508;13.454;2022-09-06T14:50:27;4.03;;;3.27;;
6537;SDS011;3302;52.508;13.454;2022-09-06T14:52:53;5.83;;;3.47;;
6537;SDS011;3302;52.508;13.454;2022-09-06T14:55:19;5.33;;;3.27;;
6537;SDS011;3302;52.508;13.454;2022-09-06T14:57:45;6.70;;;3.20;;
6537;SDS011;3302;52.508;13.454;2022-09-06T15:00:11;6.17;;;3.43;;
6537;SDS011;3302;52.508;13.454;2022-09-06T15:02:37;6.53;;;3.37;;
6537;SDS011;3302;52.508;13.454;2022-09-06T15:05:03;5.90;;;3.40;;
6537;SDS011;3302;52.508;13.454;2022-09-06T15:07:30;4.83;;;2.97;;
6537;SDS011;3302;52.508;13.454;2022-09-06T15:09:56;6.10;;;3.50;;
6537;SDS011;3302;52.508;13.454;2022-09-06T15:12:22;5.33;;;3.80;;
6537;SDS011;3302;52.508;13.454;2022-09-06T15:14:48;4.83;;;3.40;;
6537;SDS011;3302;52.508;13.454;2022-09-06T15:17:14;7.00;;;4.20;;
6537;SDS011;3302;52.508;13.454;2022-09-06T15:19:40;4.47;;;3.25;;
6537;SDS011;3302;52.508;13.454;2022-09-06T15:22:05;6.60;;;3.83;;
6537;SDS011;3302;52.508;13.454;2022-09-06T15:24:31;5.30;;;4.00;;
6537;SDS011;3302;52.508;13.454;2022-09-06T15:26:58;4.93;;;3.23;;
6537;SDS011;3302;52.508;13.454;2022-09-06T15:29:24;5.13;;;4.15;;
6537;SDS011;3302;52.508;13.454;2022-09-06T15:31:53;7.83;;;3.50;;
6537;SDS011;3302;52.508;13.454;2022-09-06T15:34:20;3.93;;;3.30;;
6537;SDS011;3302;52.508;13.454;2022-09-06T15:36:47;5.43;;;3.40;;
6537;SDS011;3302;52.508;13.454;2022-09-06T15:39:14;4.70;;;3.57;;
6537;SDS011;3302;52.508;13.454;2022-09-06T15:41:40;5.70;;;3.00;;
6537;SDS011;3302;52.508;13.454;2022-09-06T15:44:13;6.00;;;3.17;;
6537;SDS011;3302;52.508;13.454;2022-09-06T15:46:54;4.13;;;3.50;;
6537;SDS011;3302;52.508;13.454;2022-09-06T15:49:26;4.57;;;3.38;;
6537;SDS011;3302;52.508;13.454;2022-09-06T15:51:56;5.63;;;3.40;;
6537;SDS011;3302;52.508;13.454;2022-09-06T15:54:24;4.57;;;3.20;;
6537;SDS011;3302;52.508;13.454;2022-09-06T15:57:10;7.30;;;5.07;;
6537;SDS011;3302;52.508;13.454;2022-09-06T15:59:37;5.33;;;3.70;;
6537;SDS011;3302;52.508;13.454;2022-09-06T16:02:04;3.73;;;3.43;;
6537;SDS011;3302;52.508;13.454;2022-09-06T16:04:30;6.83;;;3.60;;
6537;SDS011;3302;52.508;13.454;2022-09-06T16:06:56;5.93;;;3.97;;
6537;SDS011;3302;52.508;13.454;2022-09-06T16:09:22;5.60;;;3.67;;
6537;SDS011;3302;52.508;13.454;2022-09-06T16:11:48;8.00;;;3.97;;
6537;SDS011;3302;52.508;13.454;2022-09-06T16:14:14;6.77;;;3.90;;
6537;SDS011;3302;52.508;13.454;2022-09-06T16:16:40;6.30;;;4.37;;
6537;SDS011;3302;52.508;13.454;2022-09-06T16:19:07;6.30;;;4.10;;
6537;SDS011;3302;52.508;13.454;2022-09-06T16:21:36;6.30;;;4.07;;
6537;SDS011;3302;52.508;13.454;2022-09-06T16:24:04;4.47;;;3.57;;
6537;SDS011;3302;52.508;13.454;2022-09-06T16:26:33;5.90;;;3.70;;
6537;SDS011;3302;52.508;13.454;2022-09-06T16:29:01;6.75;;;3.88;;
6537;SDS011;3302;52.508;13.454;2022-09-06T16:31:28;5.23;;;3.10;;
6537;SDS011;3302;52.508;13.454;2022-09-06T16:33:54;4.63;;;3.47;;
6537;SDS011;3302;52.508;13.454;2022-09-06T16:36:22;10.20;;;4.30;;
6537;SDS011;3302;52.508;13.454;2022-09-06T16:38:49;5.60;;;3.77;;
6537;SDS011;3302;52.508;13.454;2022-09-06T16:41:16;5.53;;;3.90;;
6537;SDS011;3302;52.508;13.454;2022-09-06T16:43:50;6.27;;;4.07;;
6537;SDS011;3302;52.508;13.454;2022-09-06T16:46:19;4.20;;;3.27;;
6537;SDS011;3302;52.508;13.454;2022-09-06T16:48:53;4.27;;;3.23;;